City of Industry, California
Current Conditions -  °F | °C
As of 10:53 AM on Friday 24 Oct 2014 (Local Time) from KONT Reporting Station
Clear Clear  
Wind Chill: 83°   Ceiling: Unl
Heat Index: 83°   Visibility: 10mi
Dew Point: 36°   Wind: 0mph
Humidity: 19%   Direction: NA
Pressure: 30.01"   Gusts: NA
Location:  34.01°N, 117.57°W
Report Text: KONT 241753Z 00000KT 10SM CLR 28/02 A3001 RMK AO2 SLP146 T02830022 10283 20144 50002
Loading
Personal Weather Stations






























Interactive Weather Map
Tropical Storm Tracking
New forecast layout! Learn more

10-Day Weather Forecast

Advertisements
Track Severe Weather on mobile